createdAt,value
2023-03-15T00:01:46.460Z,0.10
2023-03-15T00:04:14.497Z,0.00
2023-03-15T00:06:41.080Z,0.10
2023-03-15T00:09:07.624Z,0.03
2023-03-15T00:11:34.103Z,0.20
2023-03-15T00:14:02.394Z,0.08
2023-03-15T00:16:29.528Z,0.10
2023-03-15T00:18:56.415Z,0.10
2023-03-15T00:21:23.454Z,0.20
2023-03-15T00:23:50.365Z,0.15
2023-03-15T00:26:17.056Z,0.20
2023-03-15T00:28:43.675Z,0.20
2023-03-15T00:31:20.889Z,0.20
2023-03-15T00:33:48.613Z,0.40
2023-03-15T00:36:16.196Z,0.30
2023-03-15T00:38:46.323Z,0.30
2023-03-15T00:41:15.717Z,0.27
2023-03-15T00:43:42.818Z,0.20
2023-03-15T00:46:09.610Z,0.20
2023-03-15T00:48:36.171Z,0.32
2023-03-15T00:51:10.046Z,0.25
2023-03-15T00:53:37.975Z,0.80
2023-03-15T00:56:15.269Z,0.70
2023-03-15T00:58:42.365Z,0.50
2023-03-15T01:01:12.514Z,0.52
2023-03-15T01:03:39.446Z,0.82
2023-03-15T01:06:08.646Z,0.70
2023-03-15T01:08:35.504Z,1.02
2023-03-15T01:11:07.473Z,0.80
2023-03-15T01:13:34.331Z,0.90
2023-03-15T01:16:00.848Z,0.88
2023-03-15T01:18:27.505Z,0.87
2023-03-15T01:20:54.010Z,1.13
2023-03-15T01:23:20.972Z,0.88
2023-03-15T01:25:47.484Z,0.80
2023-03-15T01:28:13.914Z,0.70
2023-03-15T01:30:40.367Z,0.73
2023-03-15T01:33:06.819Z,0.73
2023-03-15T01:35:33.242Z,0.50
2023-03-15T01:37:59.746Z,0.52
2023-03-15T01:40:26.169Z,0.50
2023-03-15T01:43:12.148Z,0.50
2023-03-15T01:45:59.602Z,0.50
2023-03-15T01:48:33.702Z,0.30
2023-03-15T01:51:02.525Z,0.30
2023-03-15T01:53:31.885Z,0.55
2023-03-15T01:56:00.973Z,0.40
2023-03-15T01:58:28.539Z,0.35
2023-03-15T02:00:55.042Z,0.40
2023-03-15T02:03:24.852Z,0.32
2023-03-15T02:05:57.082Z,0.57
2023-03-15T02:08:29.035Z,0.50
2023-03-15T02:10:58.751Z,0.47
2023-03-15T02:13:27.479Z,0.30
2023-03-15T02:15:54.578Z,0.35
2023-03-15T02:18:21.387Z,0.40
2023-03-15T02:21:00.257Z,0.30
2023-03-15T02:23:28.094Z,0.35
2023-03-15T02:26:00.504Z,0.50
2023-03-15T02:28:27.550Z,0.30
2023-03-15T02:30:54.373Z,0.50
2023-03-15T02:33:28.307Z,0.30
2023-03-15T02:35:56.045Z,0.30
2023-03-15T02:38:22.828Z,0.40
2023-03-15T02:40:52.859Z,0.30
2023-03-15T02:43:25.079Z,0.40
2023-03-15T02:45:51.750Z,0.30
2023-03-15T02:48:18.982Z,0.93
2023-03-15T02:50:45.786Z,0.57
2023-03-15T02:53:12.518Z,0.57
2023-03-15T02:55:39.475Z,0.40
2023-03-15T02:58:05.946Z,0.60
2023-03-15T03:00:32.832Z,0.47
2023-03-15T03:02:59.507Z,0.40
2023-03-15T03:05:26.748Z,0.55
2023-03-15T03:07:53.276Z,0.30
2023-03-15T03:10:20.603Z,0.40
2023-03-15T03:12:47.507Z,0.77
2023-03-15T03:15:13.915Z,0.57
2023-03-15T03:17:40.416Z,0.35
2023-03-15T03:20:09.893Z,0.40
2023-03-15T03:22:37.680Z,0.33
2023-03-15T03:25:06.303Z,0.43
2023-03-15T03:27:36.628Z,0.28
2023-03-15T03:30:09.556Z,0.40
2023-03-15T03:32:36.224Z,0.40
2023-03-15T03:35:02.950Z,0.30
2023-03-15T03:37:30.845Z,0.70
2023-03-15T03:39:57.958Z,0.55
2023-03-15T03:42:24.370Z,0.32
2023-03-15T03:44:50.983Z,0.22
2023-03-15T03:47:17.418Z,0.40
2023-03-15T03:49:43.780Z,0.55
2023-03-15T03:52:10.344Z,0.43
2023-03-15T03:54:36.747Z,0.57
2023-03-15T03:57:03.410Z,0.45
2023-03-15T03:59:29.808Z,0.60
2023-03-15T04:01:56.200Z,0.50
2023-03-15T04:04:22.673Z,0.50
2023-03-15T04:06:50.768Z,0.57
2023-03-15T04:09:18.587Z,0.70
2023-03-15T04:11:45.110Z,0.70
2023-03-15T04:14:12.928Z,0.40
2023-03-15T04:16:39.639Z,0.47
2023-03-15T04:19:07.031Z,0.70
2023-03-15T04:21:33.887Z,0.85
2023-03-15T04:24:03.471Z,0.60
2023-03-15T04:26:30.537Z,0.50
2023-03-15T04:28:58.579Z,0.80
2023-03-15T04:31:27.423Z,0.60
2023-03-15T04:33:54.705Z,0.50
2023-03-15T04:36:22.980Z,0.43
2023-03-15T04:38:50.274Z,0.35
2023-03-15T04:41:18.028Z,0.40
2023-03-15T04:43:44.767Z,0.47
2023-03-15T04:46:11.500Z,0.80
2023-03-15T04:48:37.893Z,0.67
2023-03-15T04:51:04.443Z,0.40
2023-03-15T04:53:30.912Z,0.82
2023-03-15T04:55:57.369Z,0.50
2023-03-15T04:58:23.873Z,0.60
2023-03-15T05:00:50.268Z,0.40
2023-03-15T05:03:16.643Z,0.68
2023-03-15T05:05:47.646Z,0.80
2023-03-15T05:08:14.341Z,0.88
2023-03-15T05:10:40.758Z,0.57
2023-03-15T05:13:07.171Z,1.00
2023-03-15T05:15:33.585Z,0.77
2023-03-15T05:18:00.018Z,1.08
2023-03-15T05:20:26.406Z,0.80
2023-03-15T05:22:55.432Z,0.80
2023-03-15T05:25:22.111Z,0.70
2023-03-15T05:27:48.705Z,1.00
2023-03-15T05:30:16.274Z,0.93
2023-03-15T05:32:44.826Z,0.70
2023-03-15T05:35:13.088Z,1.33
2023-03-15T05:37:40.226Z,0.80
2023-03-15T05:40:10.314Z,1.38
2023-03-15T05:42:36.871Z,1.63
2023-03-15T05:45:03.455Z,1.10
2023-03-15T05:47:29.930Z,1.30
2023-03-15T05:49:56.327Z,1.03
2023-03-15T05:52:22.806Z,1.80
2023-03-15T05:54:49.537Z,0.95
2023-03-15T05:57:15.954Z,0.60
2023-03-15T05:59:42.448Z,1.00
2023-03-15T06:02:08.994Z,0.80
2023-03-15T06:04:37.845Z,1.20
2023-03-15T06:07:05.065Z,1.35
2023-03-15T06:09:32.065Z,0.93
2023-03-15T06:11:59.109Z,1.48
2023-03-15T06:14:27.476Z,0.93
2023-03-15T06:16:54.084Z,1.35
2023-03-15T06:19:21.350Z,1.45
2023-03-15T06:21:48.724Z,1.25
2023-03-15T06:24:15.463Z,1.20
2023-03-15T06:26:42.038Z,1.33
2023-03-15T06:29:08.896Z,0.80
2023-03-15T06:31:35.658Z,0.63
2023-03-15T06:34:02.044Z,0.88
2023-03-15T06:36:28.818Z,1.20
2023-03-15T06:38:55.249Z,0.60
2023-03-15T06:41:21.805Z,0.73
2023-03-15T06:43:48.262Z,1.08
2023-03-15T06:46:14.740Z,0.80
2023-03-15T06:48:41.452Z,0.80
2023-03-15T06:51:07.948Z,0.80
2023-03-15T06:53:34.830Z,0.85
2023-03-15T06:56:01.520Z,1.02
2023-03-15T06:58:27.968Z,1.48
2023-03-15T07:00:54.601Z,1.08
2023-03-15T07:03:22.336Z,0.90
2023-03-15T07:05:52.444Z,1.08
2023-03-15T07:08:19.548Z,1.00
2023-03-15T07:10:46.620Z,0.88
2023-03-15T07:13:13.440Z,1.25
2023-03-15T07:15:40.045Z,1.10
2023-03-15T07:18:06.608Z,1.08
2023-03-15T07:20:33.119Z,1.15
2023-03-15T07:22:59.585Z,0.80
2023-03-15T07:25:26.059Z,1.10
2023-03-15T07:27:53.590Z,0.67
2023-03-15T07:30:23.065Z,1.48
2023-03-15T07:32:49.512Z,0.88
2023-03-15T07:35:18.069Z,1.00
2023-03-15T07:37:44.948Z,0.80
2023-03-15T07:40:12.617Z,0.70
2023-03-15T07:42:40.471Z,0.82
2023-03-15T07:45:07.768Z,1.83
2023-03-15T07:47:34.467Z,0.77
2023-03-15T07:50:00.900Z,0.68
2023-03-15T07:52:27.707Z,0.53
2023-03-15T07:54:54.105Z,1.00
2023-03-15T07:57:20.481Z,1.02
2023-03-15T07:59:46.902Z,0.82
2023-03-15T08:02:14.994Z,0.80
2023-03-15T08:04:41.534Z,0.57
2023-03-15T08:07:08.064Z,0.63
2023-03-15T08:09:34.786Z,0.60
2023-03-15T08:12:01.722Z,0.45
2023-03-15T08:14:29.322Z,0.70
2023-03-15T08:16:55.709Z,0.60
2023-03-15T08:19:22.257Z,0.40
2023-03-15T08:21:48.746Z,0.40
2023-03-15T08:24:15.625Z,0.63
2023-03-15T08:26:44.870Z,0.40
2023-03-15T08:29:11.518Z,0.47
2023-03-15T08:31:38.132Z,0.50
2023-03-15T08:34:04.496Z,0.98
2023-03-15T08:36:32.556Z,0.60
2023-03-15T08:38:59.055Z,0.50
2023-03-15T08:41:25.388Z,0.40
2023-03-15T08:43:51.742Z,0.63
2023-03-15T08:46:18.178Z,0.50
2023-03-15T08:48:44.674Z,0.40
2023-03-15T08:51:11.535Z,0.40
2023-03-15T08:53:38.405Z,0.33
2023-03-15T08:56:04.967Z,0.73
2023-03-15T08:58:31.347Z,0.50
2023-03-15T09:00:58.339Z,0.40
2023-03-15T09:03:24.794Z,0.55
2023-03-15T09:05:55.961Z,0.30
2023-03-15T09:08:25.129Z,0.52
2023-03-15T09:10:58.318Z,0.38
2023-03-15T09:13:25.679Z,0.45
2023-03-15T09:15:53.600Z,0.40
2023-03-15T09:18:20.816Z,0.27
2023-03-15T09:20:48.054Z,0.30
2023-03-15T09:23:14.556Z,0.20
2023-03-15T09:25:41.708Z,0.30
2023-03-15T09:28:10.271Z,0.40
2023-03-15T09:30:38.230Z,0.43
2023-03-15T09:33:05.192Z,0.30
2023-03-15T09:35:31.899Z,0.45
2023-03-15T09:37:58.411Z,0.38
2023-03-15T09:40:29.260Z,0.40
2023-03-15T09:43:02.259Z,0.40
2023-03-15T09:45:50.273Z,0.40
2023-03-15T09:48:25.771Z,0.40
2023-03-15T09:51:03.118Z,0.52
2023-03-15T09:53:40.169Z,0.20
2023-03-15T09:56:28.566Z,0.20
2023-03-15T09:58:59.609Z,0.30
2023-03-15T10:01:34.613Z,0.20
2023-03-15T10:04:34.654Z,0.20
2023-03-15T10:07:03.995Z,0.38
2023-03-15T10:09:35.386Z,0.30
2023-03-15T10:12:05.294Z,0.40
2023-03-15T10:14:54.868Z,0.22
2023-03-15T10:17:32.604Z,0.38
2023-03-15T10:20:04.303Z,0.28
2023-03-15T10:22:40.746Z,0.27
2023-03-15T10:25:16.697Z,0.20
2023-03-15T10:28:08.436Z,0.25
2023-03-15T10:30:38.102Z,0.30
2023-03-15T10:33:06.868Z,0.30
2023-03-15T10:35:33.396Z,0.20
2023-03-15T10:37:59.972Z,0.40
2023-03-15T10:40:41.635Z,0.30
2023-03-15T10:43:17.167Z,1.05
2023-03-15T10:45:47.637Z,0.50
2023-03-15T10:48:14.308Z,0.30
2023-03-15T10:50:40.742Z,0.40
2023-03-15T10:53:11.351Z,0.40
2023-03-15T10:55:44.301Z,0.82
2023-03-15T10:58:17.135Z,0.20
2023-03-15T11:00:51.096Z,0.20
2023-03-15T11:03:27.657Z,0.30
2023-03-15T11:05:57.510Z,0.10
2023-03-15T11:08:44.301Z,0.10
2023-03-15T11:11:11.419Z,0.20
2023-03-15T11:13:39.704Z,0.40
2023-03-15T11:16:15.340Z,0.20
2023-03-15T11:19:12.498Z,0.60
2023-03-15T11:21:40.374Z,0.40
2023-03-15T11:24:07.374Z,0.28
2023-03-15T11:26:37.752Z,0.30
2023-03-15T11:29:07.999Z,0.30
2023-03-15T11:31:35.946Z,0.30
2023-03-15T11:34:33.365Z,0.13
2023-03-15T11:37:08.928Z,0.10
2023-03-15T11:40:11.809Z,0.20
2023-03-15T11:42:49.579Z,0.40
2023-03-15T11:45:29.489Z,0.38
2023-03-15T11:48:01.573Z,0.20
2023-03-15T11:50:28.439Z,0.30
2023-03-15T11:52:55.008Z,0.67
2023-03-15T11:55:29.066Z,0.40
2023-03-15T11:57:57.985Z,0.30
2023-03-15T12:00:26.841Z,0.30
2023-03-15T12:02:58.944Z,0.45
2023-03-15T12:05:44.785Z,0.33
2023-03-15T12:08:40.755Z,0.30
2023-03-15T12:11:12.880Z,0.15
2023-03-15T12:13:51.688Z,0.50
2023-03-15T12:16:21.200Z,0.20
2023-03-15T12:18:47.977Z,0.20
2023-03-15T12:21:31.621Z,0.40
2023-03-15T12:24:08.715Z,0.15
2023-03-15T12:27:06.915Z,0.25
2023-03-15T12:29:36.086Z,0.40
2023-03-15T12:32:02.487Z,0.20
2023-03-15T12:34:49.210Z,0.30
2023-03-15T12:37:44.626Z,0.30
2023-03-15T12:40:22.251Z,0.20
2023-03-15T12:42:48.647Z,0.30
2023-03-15T12:45:18.076Z,0.20
2023-03-15T12:48:12.616Z,0.38
2023-03-15T12:50:45.706Z,0.32
2023-03-15T12:53:37.227Z,0.30
2023-03-15T12:56:29.700Z,0.25
2023-03-15T12:59:04.907Z,0.20
2023-03-15T13:01:33.599Z,0.40
2023-03-15T13:04:01.985Z,0.30
2023-03-15T13:06:43.257Z,0.20
2023-03-15T13:09:24.613Z,0.25
2023-03-15T13:12:04.690Z,0.30
2023-03-15T13:14:54.920Z,0.30
2023-03-15T13:17:41.578Z,0.20
2023-03-15T13:20:29.685Z,0.32
2023-03-15T13:23:17.810Z,0.20
2023-03-15T13:26:08.672Z,0.20
2023-03-15T13:28:42.401Z,0.40
2023-03-15T13:31:18.028Z,0.20
2023-03-15T13:33:48.534Z,0.20
2023-03-15T13:36:17.488Z,0.28
2023-03-15T13:38:45.132Z,0.33
2023-03-15T13:41:26.555Z,0.35
2023-03-15T13:43:56.075Z,0.20
2023-03-15T13:46:26.567Z,0.40
2023-03-15T13:48:54.847Z,0.20
2023-03-15T13:51:26.528Z,0.20
2023-03-15T13:53:56.020Z,0.20
2023-03-15T13:56:40.327Z,0.35
2023-03-15T13:59:13.971Z,0.20
2023-03-15T14:01:42.496Z,0.13
2023-03-15T14:04:16.130Z,0.20
2023-03-15T14:06:45.663Z,0.17
2023-03-15T14:09:21.865Z,0.43
2023-03-15T14:12:03.093Z,0.20
2023-03-15T14:14:31.177Z,0.40
2023-03-15T14:17:05.416Z,0.40
2023-03-15T14:19:35.043Z,0.63
2023-03-15T14:22:12.595Z,0.20
2023-03-15T14:24:43.189Z,0.10
2023-03-15T14:27:21.038Z,0.10
2023-03-15T14:29:54.468Z,0.30
2023-03-15T14:32:27.570Z,0.50
2023-03-15T14:35:30.279Z,0.13
2023-03-15T14:38:22.704Z,0.35
2023-03-15T14:40:50.479Z,0.10
2023-03-15T14:43:17.200Z,0.30
2023-03-15T14:45:46.681Z,0.20
2023-03-15T14:48:31.846Z,0.20
2023-03-15T14:50:58.321Z,0.20
2023-03-15T14:53:27.891Z,0.20
2023-03-15T14:55:54.487Z,0.50
2023-03-15T14:58:22.490Z,0.30
2023-03-15T15:00:53.759Z,0.10
2023-03-15T15:03:29.169Z,0.13
2023-03-15T15:05:55.644Z,0.20
2023-03-15T15:08:24.709Z,0.20
2023-03-15T15:10:53.526Z,0.22
2023-03-15T15:13:23.614Z,0.20
2023-03-15T15:15:55.716Z,0.28
2023-03-15T15:18:24.592Z,0.55
2023-03-15T15:20:54.225Z,0.20
2023-03-15T15:23:24.562Z,0.17
2023-03-15T15:25:53.355Z,0.20
2023-03-15T15:28:33.475Z,0.20
2023-03-15T15:31:01.509Z,0.20
2023-03-15T15:33:27.909Z,0.43
2023-03-15T15:35:56.412Z,0.60
2023-03-15T15:38:37.996Z,0.30
2023-03-15T15:41:04.667Z,0.15
2023-03-15T15:43:33.502Z,0.15
2023-03-15T15:46:00.232Z,0.20
2023-03-15T15:48:26.750Z,0.15
2023-03-15T15:50:53.228Z,0.40
2023-03-15T15:53:19.749Z,0.20
2023-03-15T15:55:46.361Z,0.20
2023-03-15T15:58:14.058Z,0.20
2023-03-15T16:00:40.806Z,0.28
2023-03-15T16:03:16.517Z,0.20
2023-03-15T16:05:43.561Z,0.22
2023-03-15T16:08:24.106Z,0.20
2023-03-15T16:10:50.860Z,0.30
2023-03-15T16:13:18.054Z,0.32
2023-03-15T16:15:44.604Z,0.10
2023-03-15T16:18:12.520Z,0.28
2023-03-15T16:20:41.021Z,0.20
2023-03-15T16:23:13.600Z,0.30
2023-03-15T16:25:41.637Z,0.30
2023-03-15T16:28:11.377Z,0.20
2023-03-15T16:30:37.885Z,0.30
2023-03-15T16:33:14.292Z,0.17
2023-03-15T16:35:40.960Z,0.30
2023-03-15T16:38:14.772Z,0.20
2023-03-15T16:40:43.000Z,0.20
2023-03-15T16:43:13.797Z,0.22
2023-03-15T16:45:40.686Z,0.22
2023-03-15T16:48:07.173Z,0.20
2023-03-15T16:50:34.967Z,0.45
2023-03-15T16:53:05.192Z,0.30
2023-03-15T16:55:32.985Z,0.28
2023-03-15T16:58:04.691Z,0.47
2023-03-15T17:00:32.282Z,0.20
2023-03-15T17:03:00.059Z,0.30
2023-03-15T17:05:26.715Z,0.10
2023-03-15T17:07:55.160Z,0.25
2023-03-15T17:10:27.946Z,0.10
2023-03-15T17:12:56.216Z,0.20
2023-03-15T17:15:25.520Z,0.10
2023-03-15T17:17:53.891Z,0.40
2023-03-15T17:20:28.681Z,0.40
2023-03-15T17:23:04.835Z,0.10
2023-03-15T17:25:33.056Z,0.30
2023-03-15T17:28:00.428Z,0.50
2023-03-15T17:30:30.470Z,0.20
2023-03-15T17:32:57.439Z,0.20
2023-03-15T17:35:28.898Z,0.20
2023-03-15T17:37:55.967Z,0.30
2023-03-15T17:40:27.771Z,0.30
2023-03-15T17:42:56.070Z,0.30
2023-03-15T17:45:26.640Z,0.20
2023-03-15T17:47:56.535Z,0.30
2023-03-15T17:50:26.313Z,0.47
2023-03-15T17:53:02.129Z,0.77
2023-03-15T17:55:30.934Z,0.50
2023-03-15T17:57:57.411Z,0.50
2023-03-15T18:00:25.085Z,0.45
2023-03-15T18:02:56.392Z,0.60
2023-03-15T18:05:29.196Z,0.60
2023-03-15T18:07:59.905Z,0.70
2023-03-15T18:10:34.578Z,0.85
2023-03-15T18:13:01.370Z,0.70
2023-03-15T18:15:28.882Z,1.00
2023-03-15T18:17:55.717Z,0.75
2023-03-15T18:20:24.267Z,0.75
2023-03-15T18:22:51.882Z,0.60
2023-03-15T18:25:30.342Z,0.57
2023-03-15T18:27:57.287Z,0.70
2023-03-15T18:30:26.025Z,0.43
2023-03-15T18:32:53.705Z,0.60
2023-03-15T18:35:33.121Z,0.50
2023-03-15T18:37:59.970Z,0.50
2023-03-15T18:40:29.568Z,0.60
2023-03-15T18:42:57.922Z,0.50
2023-03-15T18:45:33.831Z,0.70
2023-03-15T18:48:00.451Z,0.63
2023-03-15T18:50:28.459Z,0.70
2023-03-15T18:52:55.214Z,0.77
2023-03-15T18:55:23.008Z,1.10
2023-03-15T18:57:51.955Z,0.70
2023-03-15T19:00:26.269Z,0.80
2023-03-15T19:02:55.297Z,0.80
2023-03-15T19:05:22.030Z,0.77
2023-03-15T19:07:48.598Z,0.93
2023-03-15T19:10:19.069Z,0.90
2023-03-15T19:12:46.390Z,0.90
2023-03-15T19:15:17.160Z,1.23
2023-03-15T19:17:45.576Z,1.00
2023-03-15T19:20:14.833Z,1.25
2023-03-15T19:22:41.750Z,0.80
2023-03-15T19:25:11.548Z,1.27
2023-03-15T19:27:38.088Z,1.23
2023-03-15T19:30:08.483Z,1.10
2023-03-15T19:32:36.097Z,1.10
2023-03-15T19:35:02.657Z,1.27
2023-03-15T19:37:29.183Z,1.40
2023-03-15T19:39:55.615Z,0.90
2023-03-15T19:42:22.072Z,1.50
2023-03-15T19:44:48.639Z,1.48
2023-03-15T19:47:15.054Z,1.20
2023-03-15T19:49:41.494Z,1.35
2023-03-15T19:52:07.944Z,0.90
2023-03-15T19:54:34.459Z,1.03
2023-03-15T19:57:01.048Z,1.10
2023-03-15T19:59:27.575Z,1.30
2023-03-15T20:01:54.017Z,1.13
2023-03-15T20:04:20.489Z,1.30
2023-03-15T20:06:46.885Z,1.63
2023-03-15T20:09:13.581Z,1.35
2023-03-15T20:11:39.996Z,1.58
2023-03-15T20:14:06.448Z,1.50
2023-03-15T20:16:33.050Z,1.48
2023-03-15T20:18:59.465Z,1.17
2023-03-15T20:21:25.948Z,1.50
2023-03-15T20:23:52.415Z,1.50
2023-03-15T20:26:19.062Z,1.63
2023-03-15T20:28:47.118Z,2.00
2023-03-15T20:31:18.763Z,2.13
2023-03-15T20:33:48.591Z,2.17
2023-03-15T20:36:16.511Z,2.60
2023-03-15T20:38:43.216Z,2.42
2023-03-15T20:41:09.706Z,2.47
2023-03-15T20:43:36.105Z,1.90
2023-03-15T20:46:04.261Z,1.92
2023-03-15T20:48:34.951Z,1.70
2023-03-15T20:51:04.336Z,1.80
2023-03-15T20:53:33.126Z,1.50
2023-03-15T20:55:59.645Z,1.63
2023-03-15T20:58:26.978Z,1.70
2023-03-15T21:01:08.878Z,1.58
2023-03-15T21:03:36.639Z,1.02
2023-03-15T21:06:07.126Z,1.50
2023-03-15T21:08:34.824Z,1.30
2023-03-15T21:11:03.624Z,1.30
2023-03-15T21:13:30.377Z,1.20
2023-03-15T21:15:57.084Z,1.42
2023-03-15T21:18:24.217Z,1.67
2023-03-15T21:20:58.566Z,2.17
2023-03-15T21:23:27.993Z,2.00
2023-03-15T21:25:55.689Z,1.70
2023-03-15T21:28:23.322Z,1.52
2023-03-15T21:30:54.516Z,1.77
2023-03-15T21:33:22.551Z,1.47
2023-03-15T21:35:49.787Z,1.73
2023-03-15T21:38:17.198Z,1.98
2023-03-15T21:40:45.407Z,2.22
2023-03-15T21:43:12.623Z,1.90
2023-03-15T21:45:39.382Z,2.00
2023-03-15T21:48:06.274Z,1.73
2023-03-15T21:50:32.887Z,2.13
2023-03-15T21:52:59.272Z,1.92
2023-03-15T21:55:25.728Z,2.03
2023-03-15T21:57:52.090Z,1.67
2023-03-15T22:00:20.214Z,1.67
2023-03-15T22:02:46.891Z,1.83
2023-03-15T22:05:13.879Z,1.73
2023-03-15T22:07:42.026Z,1.95
2023-03-15T22:10:09.889Z,1.80
2023-03-15T22:12:37.666Z,1.77
2023-03-15T22:15:06.494Z,2.05
2023-03-15T22:17:33.834Z,1.60
2023-03-15T22:20:00.913Z,1.95
2023-03-15T22:22:27.971Z,1.80
2023-03-15T22:24:54.418Z,1.80
2023-03-15T22:27:20.819Z,1.88
2023-03-15T22:29:47.175Z,1.83
2023-03-15T22:32:14.164Z,1.55
2023-03-15T22:34:40.590Z,2.00
2023-03-15T22:37:07.104Z,1.90
2023-03-15T22:39:34.141Z,1.67
2023-03-15T22:42:00.545Z,1.60
2023-03-15T22:44:28.917Z,1.95
2023-03-15T22:46:56.463Z,1.67
2023-03-15T22:49:23.660Z,1.63
2023-03-15T22:51:50.023Z,1.70
2023-03-15T22:54:16.522Z,1.33
2023-03-15T22:56:43.214Z,2.00
2023-03-15T22:59:10.021Z,2.00
2023-03-15T23:01:36.508Z,2.05
2023-03-15T23:04:03.558Z,2.05
2023-03-15T23:06:30.015Z,1.63
2023-03-15T23:08:56.382Z,1.80
2023-03-15T23:11:22.956Z,1.90
2023-03-15T23:13:49.350Z,1.73
2023-03-15T23:16:17.010Z,2.25
2023-03-15T23:18:45.296Z,1.85
2023-03-15T23:21:14.055Z,2.55
2023-03-15T23:23:42.681Z,1.50
2023-03-15T23:26:09.448Z,2.00
2023-03-15T23:28:35.902Z,1.80
2023-03-15T23:31:05.440Z,1.88
2023-03-15T23:33:35.340Z,2.30
2023-03-15T23:36:03.992Z,1.77
2023-03-15T23:38:30.370Z,1.90
2023-03-15T23:40:59.027Z,1.60
2023-03-15T23:43:25.698Z,2.15
2023-03-15T23:45:57.442Z,1.95
2023-03-15T23:48:24.343Z,1.90
2023-03-15T23:50:55.375Z,1.63
2023-03-15T23:53:22.059Z,1.77
2023-03-15T23:55:48.859Z,1.58
2023-03-15T23:58:15.480Z,2.05
